sensor_id;sensor_type;location;lat;lon;timestamp;temperature;humidity
41310;DHT22;27057;51.438;-0.010;2022-10-10T00:01:14;11.90;99.90
41310;DHT22;27057;51.438;-0.010;2022-10-10T00:03:42;12.20;99.90
41310;DHT22;27057;51.438;-0.010;2022-10-10T00:06:10;12.30;99.90
41310;DHT22;27057;51.438;-0.010;2022-10-10T00:08:37;12.10;99.90
41310;DHT22;27057;51.438;-0.010;2022-10-10T00:11:05;12.20;99.90
41310;DHT22;27057;51.438;-0.010;2022-10-10T00:13:33;12.00;99.90
41310;DHT22;27057;51.438;-0.010;2022-10-10T00:16:00;12.20;99.90
41310;DHT22;27057;51.438;-0.010;2022-10-10T00:18:28;11.70;99.90
41310;DHT22;27057;51.438;-0.010;2022-10-10T00:20:56;11.70;99.90
41310;DHT22;27057;51.438;-0.010;2022-10-10T00:23:24;11.80;99.90
41310;DHT22;27057;51.438;-0.010;2022-10-10T00:25:51;11.70;99.90
41310;DHT22;27057;51.438;-0.010;2022-10-10T00:28:19;11.80;99.90
41310;DHT22;27057;51.438;-0.010;2022-10-10T00:30:46;11.90;99.90
41310;DHT22;27057;51.438;-0.010;2022-10-10T00:33:14;12.00;99.90
41310;DHT22;27057;51.438;-0.010;2022-10-10T00:35:41;11.70;99.90
41310;DHT22;27057;51.438;-0.010;2022-10-10T00:38:09;12.10;99.90
41310;DHT22;27057;51.438;-0.010;2022-10-10T00:40:48;11.80;99.90
41310;DHT22;27057;51.438;-0.010;2022-10-10T00:43:17;11.70;99.90
41310;DHT22;27057;51.438;-0.010;2022-10-10T00:45:46;12.00;99.90
41310;DHT22;27057;51.438;-0.010;2022-10-10T00:48:16;11.90;99.90
41310;DHT22;27057;51.438;-0.010;2022-10-10T00:53:17;12.00;99.90
41310;DHT22;27057;51.438;-0.010;2022-10-10T00:55:45;11.90;99.90
41310;DHT22;27057;51.438;-0.010;2022-10-10T00:58:13;12.10;99.90
41310;DHT22;27057;51.438;-0.010;2022-10-10T01:00:42;11.90;99.90
41310;DHT22;27057;51.438;-0.010;2022-10-10T01:03:09;11.70;99.90
41310;DHT22;27057;51.438;-0.010;2022-10-10T01:05:37;11.80;99.90
41310;DHT22;27057;51.438;-0.010;2022-10-10T01:08:05;12.30;99.90
41310;DHT22;27057;51.438;-0.010;2022-10-10T01:13:40;11.90;99.90
41310;DHT22;27057;51.438;-0.010;2022-10-10T01:21:55;11.90;99.90
41310;DHT22;27057;51.438;-0.010;2022-10-10T01:30:06;11.80;99.90
41310;DHT22;27057;51.438;-0.010;2022-10-10T01:32:42;11.80;99.90
41310;DHT22;27057;51.438;-0.010;2022-10-10T01:41:05;12.00;99.90
41310;DHT22;27057;51.438;-0.010;2022-10-10T01:43:36;12.00;99.90
41310;DHT22;27057;51.438;-0.010;2022-10-10T01:46:16;12.10;99.90
41310;DHT22;27057;51.438;-0.010;2022-10-10T01:48:46;12.20;99.90
41310;DHT22;27057;51.438;-0.010;2022-10-10T02:00:08;12.40;99.90
41310;DHT22;27057;51.438;-0.010;2022-10-10T02:02:50;12.70;99.90
41310;DHT22;27057;51.438;-0.010;2022-10-10T02:08:14;12.40;99.90
41310;DHT22;27057;51.438;-0.010;2022-10-10T02:10:50;12.40;99.90
41310;DHT22;27057;51.438;-0.010;2022-10-10T02:13:20;12.10;99.90
41310;DHT22;27057;51.438;-0.010;2022-10-10T02:15:51;12.40;99.90
41310;DHT22;27057;51.438;-0.010;2022-10-10T02:18:21;12.40;99.90
41310;DHT22;27057;51.438;-0.010;2022-10-10T02:20:52;12.40;99.90
41310;DHT22;27057;51.438;-0.010;2022-10-10T02:23:20;12.40;99.90
41310;DHT22;27057;51.438;-0.010;2022-10-10T02:25:54;12.40;99.90
41310;DHT22;27057;51.438;-0.010;2022-10-10T02:30:56;12.60;99.90
41310;DHT22;27057;51.438;-0.010;2022-10-10T02:33:35;12.10;99.90
41310;DHT22;27057;51.438;-0.010;2022-10-10T02:36:06;12.40;99.90
41310;DHT22;27057;51.438;-0.010;2022-10-10T02:38:34;12.40;99.90
41310;DHT22;27057;51.438;-0.010;2022-10-10T02:41:02;12.20;99.90
41310;DHT22;27057;51.438;-0.010;2022-10-10T02:43:33;12.30;99.90
41310;DHT22;27057;51.438;-0.010;2022-10-10T02:46:01;13.50;99.90
41310;DHT22;27057;51.438;-0.010;2022-10-10T02:48:30;13.10;99.90
41310;DHT22;27057;51.438;-0.010;2022-10-10T02:50:58;12.90;99.90
41310;DHT22;27057;51.438;-0.010;2022-10-10T02:53:26;12.70;99.90
41310;DHT22;27057;51.438;-0.010;2022-10-10T02:55:53;13.10;99.90
41310;DHT22;27057;51.438;-0.010;2022-10-10T02:58:20;13.10;99.90
41310;DHT22;27057;51.438;-0.010;2022-10-10T03:00:48;13.40;99.90
41310;DHT22;27057;51.438;-0.010;2022-10-10T03:03:15;13.10;99.90
41310;DHT22;27057;51.438;-0.010;2022-10-10T03:05:42;13.30;99.90
41310;DHT22;27057;51.438;-0.010;2022-10-10T03:08:13;13.10;99.90
41310;DHT22;27057;51.438;-0.010;2022-10-10T03:10:40;13.40;99.90
41310;DHT22;27057;51.438;-0.010;2022-10-10T03:13:07;13.50;99.90
41310;DHT22;27057;51.438;-0.010;2022-10-10T03:15:34;13.50;99.90
41310;DHT22;27057;51.438;-0.010;2022-10-10T03:18:02;13.50;99.90
41310;DHT22;27057;51.438;-0.010;2022-10-10T03:20:29;13.30;99.90
41310;DHT22;27057;51.438;-0.010;2022-10-10T03:22:57;13.40;99.90
41310;DHT22;27057;51.438;-0.010;2022-10-10T03:25:24;12.00;99.90
41310;DHT22;27057;51.438;-0.010;2022-10-10T03:27:51;13.40;99.90
41310;DHT22;27057;51.438;-0.010;2022-10-10T03:30:19;13.90;99.90
41310;DHT22;27057;51.438;-0.010;2022-10-10T03:32:46;13.50;99.90
41310;DHT22;27057;51.438;-0.010;2022-10-10T03:35:13;13.30;99.90
41310;DHT22;27057;51.438;-0.010;2022-10-10T03:37:40;13.50;99.90
41310;DHT22;27057;51.438;-0.010;2022-10-10T03:40:08;13.60;99.90
41310;DHT22;27057;51.438;-0.010;2022-10-10T03:42:35;13.70;99.90
41310;DHT22;27057;51.438;-0.010;2022-10-10T03:45:04;13.60;99.90
41310;DHT22;27057;51.438;-0.010;2022-10-10T03:47:31;13.60;99.90
41310;DHT22;27057;51.438;-0.010;2022-10-10T03:49:58;13.60;99.90
41310;DHT22;27057;51.438;-0.010;2022-10-10T03:52:26;13.60;99.90
41310;DHT22;27057;51.438;-0.010;2022-10-10T03:54:53;13.60;99.90
41310;DHT22;27057;51.438;-0.010;2022-10-10T03:57:20;13.70;99.90
41310;DHT22;27057;51.438;-0.010;2022-10-10T03:59:47;13.80;99.90
41310;DHT22;27057;51.438;-0.010;2022-10-10T04:02:15;13.90;99.90
41310;DHT22;27057;51.438;-0.010;2022-10-10T04:04:42;13.90;99.90
41310;DHT22;27057;51.438;-0.010;2022-10-10T04:07:10;13.90;99.90
41310;DHT22;27057;51.438;-0.010;2022-10-10T04:09:37;13.90;99.90
41310;DHT22;27057;51.438;-0.010;2022-10-10T04:12:04;14.00;99.90
41310;DHT22;27057;51.438;-0.010;2022-10-10T04:14:31;13.90;99.90
41310;DHT22;27057;51.438;-0.010;2022-10-10T04:16:59;14.00;99.90
41310;DHT22;27057;51.438;-0.010;2022-10-10T04:19:29;13.90;99.90
41310;DHT22;27057;51.438;-0.010;2022-10-10T04:21:57;13.70;99.90
41310;DHT22;27057;51.438;-0.010;2022-10-10T04:24:24;14.00;99.90
41310;DHT22;27057;51.438;-0.010;2022-10-10T04:26:51;13.80;99.90
41310;DHT22;27057;51.438;-0.010;2022-10-10T04:29:19;13.80;99.90
41310;DHT22;27057;51.438;-0.010;2022-10-10T04:31:46;14.00;99.90
41310;DHT22;27057;51.438;-0.010;2022-10-10T04:34:14;13.90;99.90
41310;DHT22;27057;51.438;-0.010;2022-10-10T04:36:41;14.10;99.90
41310;DHT22;27057;51.438;-0.010;2022-10-10T04:39:08;13.90;99.90
41310;DHT22;27057;51.438;-0.010;2022-10-10T04:41:36;14.00;99.90
41310;DHT22;27057;51.438;-0.010;2022-10-10T04:44:03;13.90;99.90
41310;DHT22;27057;51.438;-0.010;2022-10-10T04:46:31;14.20;99.90
41310;DHT22;27057;51.438;-0.010;2022-10-10T04:48:58;14.00;99.90
41310;DHT22;27057;51.438;-0.010;2022-10-10T04:51:25;13.80;99.90
41310;DHT22;27057;51.438;-0.010;2022-10-10T04:53:53;14.00;99.90
41310;DHT22;27057;51.438;-0.010;2022-10-10T04:56:20;13.80;99.90
41310;DHT22;27057;51.438;-0.010;2022-10-10T04:58:47;13.90;99.90
41310;DHT22;27057;51.438;-0.010;2022-10-10T05:01:15;13.80;99.90
41310;DHT22;27057;51.438;-0.010;2022-10-10T05:03:42;13.80;99.90
41310;DHT22;27057;51.438;-0.010;2022-10-10T05:06:10;13.70;99.90
41310;DHT22;27057;51.438;-0.010;2022-10-10T05:08:37;13.70;99.90
41310;DHT22;27057;51.438;-0.010;2022-10-10T05:11:04;13.80;99.90
41310;DHT22;27057;51.438;-0.010;2022-10-10T05:13:32;13.80;99.90
41310;DHT22;27057;51.438;-0.010;2022-10-10T05:15:59;13.70;99.90
41310;DHT22;27057;51.438;-0.010;2022-10-10T05:18:27;14.50;99.90
41310;DHT22;27057;51.438;-0.010;2022-10-10T05:20:54;13.70;99.90
41310;DHT22;27057;51.438;-0.010;2022-10-10T05:23:28;13.70;99.90
41310;DHT22;27057;51.438;-0.010;2022-10-10T05:25:56;13.70;99.90
41310;DHT22;27057;51.438;-0.010;2022-10-10T05:28:23;13.70;99.90
41310;DHT22;27057;51.438;-0.010;2022-10-10T05:30:51;13.70;99.90
41310;DHT22;27057;51.438;-0.010;2022-10-10T05:33:18;13.70;99.90
41310;DHT22;27057;51.438;-0.010;2022-10-10T05:35:46;13.60;99.90
41310;DHT22;27057;51.438;-0.010;2022-10-10T05:38:13;13.60;99.90
41310;DHT22;27057;51.438;-0.010;2022-10-10T05:40:41;13.60;99.90
41310;DHT22;27057;51.438;-0.010;2022-10-10T05:43:09;13.70;99.90
41310;DHT22;27057;51.438;-0.010;2022-10-10T05:45:36;13.70;99.90
41310;DHT22;27057;51.438;-0.010;2022-10-10T05:48:03;13.70;99.90
41310;DHT22;27057;51.438;-0.010;2022-10-10T05:50:39;13.60;99.90
41310;DHT22;27057;51.438;-0.010;2022-10-10T05:53:07;13.60;99.90
41310;DHT22;27057;51.438;-0.010;2022-10-10T05:55:34;13.60;99.90
41310;DHT22;27057;51.438;-0.010;2022-10-10T05:58:03;13.60;99.90
41310;DHT22;27057;51.438;-0.010;2022-10-10T06:02:58;13.60;99.90
41310;DHT22;27057;51.438;-0.010;2022-10-10T06:05:25;13.70;99.90
41310;DHT22;27057;51.438;-0.010;2022-10-10T06:07:53;13.50;99.90
41310;DHT22;27057;51.438;-0.010;2022-10-10T06:10:41;13.70;99.90
41310;DHT22;27057;51.438;-0.010;2022-10-10T06:13:11;13.80;99.90
41310;DHT22;27057;51.438;-0.010;2022-10-10T06:15:39;13.50;99.90
41310;DHT22;27057;51.438;-0.010;2022-10-10T06:18:07;13.50;99.90
41310;DHT22;27057;51.438;-0.010;2022-10-10T06:20:39;13.50;99.90
41310;DHT22;27057;51.438;-0.010;2022-10-10T06:23:07;13.30;99.90
41310;DHT22;27057;51.438;-0.010;2022-10-10T06:25:35;13.40;99.90
41310;DHT22;27057;51.438;-0.010;2022-10-10T06:28:09;13.30;99.90
41310;DHT22;27057;51.438;-0.010;2022-10-10T06:30:41;13.10;99.90
41310;DHT22;27057;51.438;-0.010;2022-10-10T06:33:10;13.30;99.90
41310;DHT22;27057;51.438;-0.010;2022-10-10T06:35:40;13.20;99.90
41310;DHT22;27057;51.438;-0.010;2022-10-10T06:38:08;13.00;99.90
41310;DHT22;27057;51.438;-0.010;2022-10-10T06:40:36;13.20;99.90
41310;DHT22;27057;51.438;-0.010;2022-10-10T06:43:04;13.30;99.90
41310;DHT22;27057;51.438;-0.010;2022-10-10T06:45:35;13.20;99.90
41310;DHT22;27057;51.438;-0.010;2022-10-10T06:48:03;12.90;99.90
41310;DHT22;27057;51.438;-0.010;2022-10-10T06:50:31;12.70;99.90
41310;DHT22;27057;51.438;-0.010;2022-10-10T06:52:58;12.90;99.90
41310;DHT22;27057;51.438;-0.010;2022-10-10T06:55:26;13.80;99.90
41310;DHT22;27057;51.438;-0.010;2022-10-10T06:57:53;12.80;99.90
41310;DHT22;27057;51.438;-0.010;2022-10-10T07:00:21;13.10;99.90
41310;DHT22;27057;51.438;-0.010;2022-10-10T07:02:48;12.40;99.90
41310;DHT22;27057;51.438;-0.010;2022-10-10T07:05:17;12.70;99.90
41310;DHT22;27057;51.438;-0.010;2022-10-10T07:07:45;12.70;99.90
41310;DHT22;27057;51.438;-0.010;2022-10-10T07:10:13;12.40;99.90
41310;DHT22;27057;51.438;-0.010;2022-10-10T07:12:42;12.70;99.90
41310;DHT22;27057;51.438;-0.010;2022-10-10T07:15:18;12.30;99.90
41310;DHT22;27057;51.438;-0.010;2022-10-10T07:17:46;12.10;99.90
41310;DHT22;27057;51.438;-0.010;2022-10-10T07:20:20;11.90;99.90
41310;DHT22;27057;51.438;-0.010;2022-10-10T07:22:47;11.70;99.90
41310;DHT22;27057;51.438;-0.010;2022-10-10T07:25:15;11.80;99.90
41310;DHT22;27057;51.438;-0.010;2022-10-10T07:27:43;11.50;99.90
41310;DHT22;27057;51.438;-0.010;2022-10-10T07:30:10;11.60;99.90
41310;DHT22;27057;51.438;-0.010;2022-10-10T07:32:38;11.50;99.90
41310;DHT22;27057;51.438;-0.010;2022-10-10T07:35:05;11.50;99.90
41310;DHT22;27057;51.438;-0.010;2022-10-10T07:37:33;11.40;99.90
41310;DHT22;27057;51.438;-0.010;2022-10-10T07:40:00;11.40;99.90
41310;DHT22;27057;51.438;-0.010;2022-10-10T07:42:28;11.60;99.90
41310;DHT22;27057;51.438;-0.010;2022-10-10T07:44:55;11.50;99.90
41310;DHT22;27057;51.438;-0.010;2022-10-10T07:47:23;11.30;99.90
41310;DHT22;27057;51.438;-0.010;2022-10-10T07:52:18;11.20;99.90
41310;DHT22;27057;51.438;-0.010;2022-10-10T07:54:45;11.70;99.90
41310;DHT22;27057;51.438;-0.010;2022-10-10T07:57:14;11.10;99.90
41310;DHT22;27057;51.438;-0.010;2022-10-10T07:59:41;11.20;99.90
41310;DHT22;27057;51.438;-0.010;2022-10-10T08:02:11;11.20;99.90
41310;DHT22;27057;51.438;-0.010;2022-10-10T08:04:39;11.40;99.90
41310;DHT22;27057;51.438;-0.010;2022-10-10T08:07:06;11.40;99.90
41310;DHT22;27057;51.438;-0.010;2022-10-10T08:12:01;11.20;99.90
41310;DHT22;27057;51.438;-0.010;2022-10-10T08:14:28;11.50;99.90
41310;DHT22;27057;51.438;-0.010;2022-10-10T08:16:56;11.60;99.90
41310;DHT22;27057;51.438;-0.010;2022-10-10T08:19:23;12.50;99.90
41310;DHT22;27057;51.438;-0.010;2022-10-10T08:21:50;11.40;99.90
41310;DHT22;27057;51.438;-0.010;2022-10-10T08:24:18;11.40;99.90
41310;DHT22;27057;51.438;-0.010;2022-10-10T08:26:46;11.50;99.90
41310;DHT22;27057;51.438;-0.010;2022-10-10T08:29:13;11.60;99.90
41310;DHT22;27057;51.438;-0.010;2022-10-10T08:31:40;11.60;99.90
41310;DHT22;27057;51.438;-0.010;2022-10-10T08:34:08;11.70;99.90
41310;DHT22;27057;51.438;-0.010;2022-10-10T08:36:35;11.90;99.90
41310;DHT22;27057;51.438;-0.010;2022-10-10T08:39:03;11.90;99.90
41310;DHT22;27057;51.438;-0.010;2022-10-10T08:41:37;12.30;99.90
41310;DHT22;27057;51.438;-0.010;2022-10-10T08:47:14;12.10;99.90
41310;DHT22;27057;51.438;-0.010;2022-10-10T08:49:53;12.30;99.90
41310;DHT22;27057;51.438;-0.010;2022-10-10T08:54:56;12.40;99.90
41310;DHT22;27057;51.438;-0.010;2022-10-10T08:57:52;12.40;99.90
41310;DHT22;27057;51.438;-0.010;2022-10-10T09:00:23;12.50;99.90
41310;DHT22;27057;51.438;-0.010;2022-10-10T09:02:56;12.50;99.90
41310;DHT22;27057;51.438;-0.010;2022-10-10T09:10:37;12.80;99.90
41310;DHT22;27057;51.438;-0.010;2022-10-10T09:15:55;13.00;99.90
41310;DHT22;27057;51.438;-0.010;2022-10-10T09:18:42;13.00;99.90
41310;DHT22;27057;51.438;-0.010;2022-10-10T09:21:13;13.00;99.90
41310;DHT22;27057;51.438;-0.010;2022-10-10T09:26:27;13.00;99.90
41310;DHT22;27057;51.438;-0.010;2022-10-10T09:32:03;13.10;99.90
41310;DHT22;27057;51.438;-0.010;2022-10-10T09:37:13;14.20;99.90
41310;DHT22;27057;51.438;-0.010;2022-10-10T09:40:02;13.60;99.90
41310;DHT22;27057;51.438;-0.010;2022-10-10T09:42:34;13.80;99.90
41310;DHT22;27057;51.438;-0.010;2022-10-10T09:45:09;14.20;99.90
41310;DHT22;27057;51.438;-0.010;2022-10-10T09:47:39;14.00;99.90
41310;DHT22;27057;51.438;-0.010;2022-10-10T09:50:11;14.20;99.90
41310;DHT22;27057;51.438;-0.010;2022-10-10T09:52:40;14.10;99.90
41310;DHT22;27057;51.438;-0.010;2022-10-10T09:55:35;14.10;99.90
41310;DHT22;27057;51.438;-0.010;2022-10-10T10:01:26;14.10;99.90
41310;DHT22;27057;51.438;-0.010;2022-10-10T10:04:16;14.20;99.90
41310;DHT22;27057;51.438;-0.010;2022-10-10T10:07:22;14.20;99.90
41310;DHT22;27057;51.438;-0.010;2022-10-10T10:09:53;13.90;99.90
41310;DHT22;27057;51.438;-0.010;2022-10-10T10:12:38;13.70;99.90
41310;DHT22;27057;51.438;-0.010;2022-10-10T10:17:45;13.70;99.90
41310;DHT22;27057;51.438;-0.010;2022-10-10T10:22:55;13.70;99.90
41310;DHT22;27057;51.438;-0.010;2022-10-10T10:25:33;14.30;99.90
41310;DHT22;27057;51.438;-0.010;2022-10-10T10:30:39;13.90;99.90
41310;DHT22;27057;51.438;-0.010;2022-10-10T10:42:09;14.10;99.90
41310;DHT22;27057;51.438;-0.010;2022-10-10T10:59:27;14.70;99.90
41310;DHT22;27057;51.438;-0.010;2022-10-10T11:05:32;14.90;99.90
41310;DHT22;27057;51.438;-0.010;2022-10-10T11:11:16;15.40;99.90
41310;DHT22;27057;51.438;-0.010;2022-10-10T11:16:51;16.30;99.90
41310;DHT22;27057;51.438;-0.010;2022-10-10T11:21:58;16.90;99.90
41310;DHT22;27057;51.438;-0.010;2022-10-10T11:24:40;17.20;99.90
41310;DHT22;27057;51.438;-0.010;2022-10-10T11:30:19;17.80;99.90
41310;DHT22;27057;51.438;-0.010;2022-10-10T11:40:54;18.60;99.90
41310;DHT22;27057;51.438;-0.010;2022-10-10T11:43:41;18.90;99.90
41310;DHT22;27057;51.438;-0.010;2022-10-10T11:46:26;19.30;99.90
41310;DHT22;27057;51.438;-0.010;2022-10-10T11:49:05;19.80;99.90
41310;DHT22;27057;51.438;-0.010;2022-10-10T11:54:39;20.10;99.90
41310;DHT22;27057;51.438;-0.010;2022-10-10T11:57:17;20.40;99.90
41310;DHT22;27057;51.438;-0.010;2022-10-10T11:59:56;20.60;99.90
41310;DHT22;27057;51.438;-0.010;2022-10-10T12:02:34;20.60;99.90
41310;DHT22;27057;51.438;-0.010;2022-10-10T12:05:03;20.70;99.90
41310;DHT22;27057;51.438;-0.010;2022-10-10T12:10:38;20.70;97.80
41310;DHT22;27057;51.438;-0.010;2022-10-10T12:13:35;20.60;98.10
41310;DHT22;27057;51.438;-0.010;2022-10-10T12:16:07;20.80;97.00
41310;DHT22;27057;51.438;-0.010;2022-10-10T12:18:53;20.90;98.00
41310;DHT22;27057;51.438;-0.010;2022-10-10T12:21:23;21.00;96.80
41310;DHT22;27057;51.438;-0.010;2022-10-10T12:24:10;21.10;98.70
41310;DHT22;27057;51.438;-0.010;2022-10-10T12:48:20;22.40;94.40
41310;DHT22;27057;51.438;-0.010;2022-10-10T12:50:58;22.50;95.10
41310;DHT22;27057;51.438;-0.010;2022-10-10T12:53:30;22.40;95.70
41310;DHT22;27057;51.438;-0.010;2022-10-10T12:56:00;22.00;93.20
41310;DHT22;27057;51.438;-0.010;2022-10-10T12:58:30;21.80;96.10
41310;DHT22;27057;51.438;-0.010;2022-10-10T13:00:59;22.10;96.50
41310;DHT22;27057;51.438;-0.010;2022-10-10T13:03:32;22.20;94.60
41310;DHT22;27057;51.438;-0.010;2022-10-10T13:06:16;22.50;94.70
41310;DHT22;27057;51.438;-0.010;2022-10-10T13:08:45;22.70;96.00
41310;DHT22;27057;51.438;-0.010;2022-10-10T13:11:14;22.90;94.80
41310;DHT22;27057;51.438;-0.010;2022-10-10T13:13:53;23.00;94.60
41310;DHT22;27057;51.438;-0.010;2022-10-10T13:16:26;23.20;93.20
41310;DHT22;27057;51.438;-0.010;2022-10-10T13:18:59;23.40;93.80
41310;DHT22;27057;51.438;-0.010;2022-10-10T13:21:28;23.10;95.00
41310;DHT22;27057;51.438;-0.010;2022-10-10T13:24:02;23.40;96.00
41310;DHT22;27057;51.438;-0.010;2022-10-10T13:26:35;22.80;92.60
41310;DHT22;27057;51.438;-0.010;2022-10-10T13:29:28;22.60;94.90
41310;DHT22;27057;51.438;-0.010;2022-10-10T13:31:58;22.70;94.50
41310;DHT22;27057;51.438;-0.010;2022-10-10T13:34:30;23.00;95.30
41310;DHT22;27057;51.438;-0.010;2022-10-10T13:37:01;23.40;94.40
41310;DHT22;27057;51.438;-0.010;2022-10-10T13:39:30;23.50;94.00
41310;DHT22;27057;51.438;-0.010;2022-10-10T13:41:58;23.60;94.90
41310;DHT22;27057;51.438;-0.010;2022-10-10T13:44:49;23.70;93.40
41310;DHT22;27057;51.438;-0.010;2022-10-10T13:56:21;24.50;92.20
41310;DHT22;27057;51.438;-0.010;2022-10-10T13:58:54;24.10;92.70
41310;DHT22;27057;51.438;-0.010;2022-10-10T14:01:45;23.60;92.80
41310;DHT22;27057;51.438;-0.010;2022-10-10T14:09:43;22.80;94.70
41310;DHT22;27057;51.438;-0.010;2022-10-10T14:12:40;23.40;94.10
41310;DHT22;27057;51.438;-0.010;2022-10-10T14:17:57;24.30;91.60
41310;DHT22;27057;51.438;-0.010;2022-10-10T14:20:24;24.30;92.00
41310;DHT22;27057;51.438;-0.010;2022-10-10T14:22:52;24.40;92.90
41310;DHT22;27057;51.438;-0.010;2022-10-10T14:25:19;24.30;93.60
41310;DHT22;27057;51.438;-0.010;2022-10-10T14:27:46;24.40;92.90
41310;DHT22;27057;51.438;-0.010;2022-10-10T14:30:14;24.60;92.00
41310;DHT22;27057;51.438;-0.010;2022-10-10T14:32:42;24.70;93.20
41310;DHT22;27057;51.438;-0.010;2022-10-10T14:35:11;25.00;92.20
41310;DHT22;27057;51.438;-0.010;2022-10-10T14:37:39;24.90;92.80
41310;DHT22;27057;51.438;-0.010;2022-10-10T14:40:17;24.70;92.80
41310;DHT22;27057;51.438;-0.010;2022-10-10T14:42:46;24.80;92.00
41310;DHT22;27057;51.438;-0.010;2022-10-10T14:45:15;24.70;92.20
41310;DHT22;27057;51.438;-0.010;2022-10-10T14:47:42;24.30;91.30
41310;DHT22;27057;51.438;-0.010;2022-10-10T14:50:34;24.50;93.10
41310;DHT22;27057;51.438;-0.010;2022-10-10T14:53:02;24.40;89.90
41310;DHT22;27057;51.438;-0.010;2022-10-10T14:55:30;24.10;91.40
41310;DHT22;27057;51.438;-0.010;2022-10-10T14:57:57;24.60;89.70
41310;DHT22;27057;51.438;-0.010;2022-10-10T15:00:26;24.00;88.90
41310;DHT22;27057;51.438;-0.010;2022-10-10T15:02:54;24.10;91.20
41310;DHT22;27057;51.438;-0.010;2022-10-10T15:05:22;24.30;91.20
41310;DHT22;27057;51.438;-0.010;2022-10-10T15:07:49;24.60;90.10
41310;DHT22;27057;51.438;-0.010;2022-10-10T15:10:19;24.80;99.50
41310;DHT22;27057;51.438;-0.010;2022-10-10T15:13:01;25.20;91.40
41310;DHT22;27057;51.438;-0.010;2022-10-10T15:15:28;25.40;90.40
41310;DHT22;27057;51.438;-0.010;2022-10-10T15:17:57;25.50;90.70
41310;DHT22;27057;51.438;-0.010;2022-10-10T15:20:25;25.70;86.80
41310;DHT22;27057;51.438;-0.010;2022-10-10T15:22:59;25.60;90.30
41310;DHT22;27057;51.438;-0.010;2022-10-10T15:25:28;25.50;90.20
41310;DHT22;27057;51.438;-0.010;2022-10-10T15:28:01;25.80;89.90
41310;DHT22;27057;51.438;-0.010;2022-10-10T15:30:29;25.90;88.90
41310;DHT22;27057;51.438;-0.010;2022-10-10T15:32:57;26.10;90.30
41310;DHT22;27057;51.438;-0.010;2022-10-10T15:35:25;26.30;90.80
41310;DHT22;27057;51.438;-0.010;2022-10-10T15:38:06;26.40;90.80
41310;DHT22;27057;51.438;-0.010;2022-10-10T15:40:33;26.50;88.90
41310;DHT22;27057;51.438;-0.010;2022-10-10T15:43:01;26.30;88.60
41310;DHT22;27057;51.438;-0.010;2022-10-10T15:45:28;26.30;90.10
41310;DHT22;27057;51.438;-0.010;2022-10-10T15:48:15;26.30;86.20
41310;DHT22;27057;51.438;-0.010;2022-10-10T15:50:43;25.80;88.60
41310;DHT22;27057;51.438;-0.010;2022-10-10T15:53:11;25.60;88.20
41310;DHT22;27057;51.438;-0.010;2022-10-10T15:55:45;25.50;86.20
41310;DHT22;27057;51.438;-0.010;2022-10-10T15:58:13;25.50;85.70
41310;DHT22;27057;51.438;-0.010;2022-10-10T16:00:42;25.20;84.50
41310;DHT22;27057;51.438;-0.010;2022-10-10T16:03:10;25.20;87.30
41310;DHT22;27057;51.438;-0.010;2022-10-10T16:05:39;24.70;85.50
41310;DHT22;27057;51.438;-0.010;2022-10-10T16:08:08;24.50;84.10
41310;DHT22;27057;51.438;-0.010;2022-10-10T16:10:42;23.10;98.30
41310;DHT22;27057;51.438;-0.010;2022-10-10T16:13:10;23.30;86.10
41310;DHT22;27057;51.438;-0.010;2022-10-10T16:15:38;23.00;88.20
41310;DHT22;27057;51.438;-0.010;2022-10-10T16:18:05;23.20;89.70
41310;DHT22;27057;51.438;-0.010;2022-10-10T16:20:32;23.20;88.80
41310;DHT22;27057;51.438;-0.010;2022-10-10T16:23:00;23.20;87.60
41310;DHT22;27057;51.438;-0.010;2022-10-10T16:25:27;23.10;87.40
41310;DHT22;27057;51.438;-0.010;2022-10-10T16:27:55;23.10;88.90
41310;DHT22;27057;51.438;-0.010;2022-10-10T16:30:25;22.50;87.70
41310;DHT22;27057;51.438;-0.010;2022-10-10T16:32:52;22.50;88.20
41310;DHT22;27057;51.438;-0.010;2022-10-10T16:35:20;22.30;88.10
41310;DHT22;27057;51.438;-0.010;2022-10-10T16:37:47;22.00;90.60
41310;DHT22;27057;51.438;-0.010;2022-10-10T16:40:15;22.00;90.70
41310;DHT22;27057;51.438;-0.010;2022-10-10T16:42:42;21.80;91.00
41310;DHT22;27057;51.438;-0.010;2022-10-10T16:45:10;21.70;91.00
41310;DHT22;27057;51.438;-0.010;2022-10-10T16:47:37;21.50;91.40
41310;DHT22;27057;51.438;-0.010;2022-10-10T16:50:05;21.10;91.70
41310;DHT22;27057;51.438;-0.010;2022-10-10T16:52:32;20.70;92.50
41310;DHT22;27057;51.438;-0.010;2022-10-10T16:55:05;20.20;92.80
41310;DHT22;27057;51.438;-0.010;2022-10-10T16:57:34;19.70;93.40
41310;DHT22;27057;51.438;-0.010;2022-10-10T17:00:02;19.30;94.00
41310;DHT22;27057;51.438;-0.010;2022-10-10T17:02:30;18.70;99.90
41310;DHT22;27057;51.438;-0.010;2022-10-10T17:04:57;18.40;94.70
41310;DHT22;27057;51.438;-0.010;2022-10-10T17:07:25;18.10;95.20
41310;DHT22;27057;51.438;-0.010;2022-10-10T17:09:53;17.90;95.40
41310;DHT22;27057;51.438;-0.010;2022-10-10T17:12:20;17.70;95.80
41310;DHT22;27057;51.438;-0.010;2022-10-10T17:14:48;17.40;96.00
41310;DHT22;27057;51.438;-0.010;2022-10-10T17:17:16;17.20;96.30
41310;DHT22;27057;51.438;-0.010;2022-10-10T17:19:45;17.00;96.70
41310;DHT22;27057;51.438;-0.010;2022-10-10T17:22:15;16.80;97.00
41310;DHT22;27057;51.438;-0.010;2022-10-10T17:24:43;16.60;97.50
41310;DHT22;27057;51.438;-0.010;2022-10-10T17:27:10;16.50;97.50
41310;DHT22;27057;51.438;-0.010;2022-10-10T17:29:37;16.30;97.70
41310;DHT22;27057;51.438;-0.010;2022-10-10T17:32:05;16.10;97.90
41310;DHT22;27057;51.438;-0.010;2022-10-10T17:34:33;16.10;98.20
41310;DHT22;27057;51.438;-0.010;2022-10-10T17:37:02;16.00;98.40
41310;DHT22;27057;51.438;-0.010;2022-10-10T17:39:30;15.90;98.50
41310;DHT22;27057;51.438;-0.010;2022-10-10T17:41:58;15.70;98.80
41310;DHT22;27057;51.438;-0.010;2022-10-10T17:44:26;15.60;99.00
41310;DHT22;27057;51.438;-0.010;2022-10-10T17:46:54;15.40;99.90
41310;DHT22;27057;51.438;-0.010;2022-10-10T17:49:21;15.40;99.70
41310;DHT22;27057;51.438;-0.010;2022-10-10T17:51:49;15.30;99.70
41310;DHT22;27057;51.438;-0.010;2022-10-10T17:54:16;15.20;99.90
41310;DHT22;27057;51.438;-0.010;2022-10-10T17:56:44;15.20;99.90
41310;DHT22;27057;51.438;-0.010;2022-10-10T17:59:12;15.40;99.90
41310;DHT22;27057;51.438;-0.010;2022-10-10T18:01:40;15.00;99.90
41310;DHT22;27057;51.438;-0.010;2022-10-10T18:04:08;14.90;99.90
41310;DHT22;27057;51.438;-0.010;2022-10-10T18:06:35;14.90;99.90
41310;DHT22;27057;51.438;-0.010;2022-10-10T18:09:03;14.80;99.90
41310;DHT22;27057;51.438;-0.010;2022-10-10T18:11:30;14.70;99.90
41310;DHT22;27057;51.438;-0.010;2022-10-10T18:13:58;14.30;99.90
41310;DHT22;27057;51.438;-0.010;2022-10-10T18:16:31;14.40;99.90
41310;DHT22;27057;51.438;-0.010;2022-10-10T18:19:01;14.50;99.90
41310;DHT22;27057;51.438;-0.010;2022-10-10T18:21:28;14.50;99.90
41310;DHT22;27057;51.438;-0.010;2022-10-10T18:23:56;14.40;99.90